Time;durP1;ratioP1;P1;durP2;ratioP2;P2;SDS_P1;SDS_P2;PMS_P1;PMS_P2;Temp;Humidity;BMP_temperature;BMP_pressure;BME280_temperature;BME280_humidity;BME280_pressure;Samples;Min_cycle;Max_cycle;Signal;HPM_P1;HPM_P2
2023/07/20 00:00:55;;;;;;;;;;;;;;;20.14;34.06;100183.63;4904177;28;98205;-69
2023/07/20 00:03:26;;;;;;;;;;;;;;;20.07;34.08;100165.00;4903807;28;98401;-70
2023/07/20 00:05:53;;;;;;;;;;;;;;;20.00;34.10;100161.22;4898069;28;98055;-69
2023/07/20 00:08:19;;;;;;;;;;;;;;;19.93;33.93;100161.81;4905635;28;99341;-69
2023/07/20 00:10:45;;;;;;;;;;;;;;;19.85;34.33;100143.56;4902441;28;98454;-69
2023/07/20 00:13:11;;;;;;;;;;;;;;;19.80;34.21;100144.53;4886467;28;98270;-69
2023/07/20 00:15:38;;;;;;;;;;;;;;;19.78;34.14;100151.50;4887947;28;98355;-69
2023/07/20 00:18:05;;;;;;;;;;;;;;;19.74;34.17;100150.56;4911302;28;97978;-69
2023/07/20 00:20:31;;;;;;;;;;;;;;;19.70;34.36;100144.97;4921436;28;99197;-69
2023/07/20 00:22:58;;;;;;;;;;;;;;;19.67;34.26;100142.91;4883652;28;99994;-69
2023/07/20 00:25:24;;;;;;;;;;;;;;;19.63;34.16;100139.25;4921988;28;99375;-69
2023/07/20 00:27:51;;;;;;;;;;;;;;;19.59;34.33;100136.34;4897622;28;98005;-69
2023/07/20 00:30:18;;;;;;;;;;;;;;;19.56;34.26;100139.75;4901764;28;98176;-70
2023/07/20 00:32:44;;;;;;;;;;;;;;;19.52;34.38;100146.22;4891647;28;98166;-69
2023/07/20 00:35:11;;;;;;;;;;;;;;;19.49;34.20;100144.16;4907350;28;98079;-69
2023/07/20 00:37:38;;;;;;;;;;;;;;;19.46;34.35;100153.03;4911737;28;97945;-69
2023/07/20 00:40:07;;;;;;;;;;;;;;;19.44;34.38;100150.63;4922442;28;97972;-69
2023/07/20 00:42:33;;;;;;;;;;;;;;;19.45;34.28;100159.63;4903450;28;98297;-69
2023/07/20 00:45:00;;;;;;;;;;;;;;;19.45;34.43;100162.34;4887679;28;98149;-69
2023/07/20 00:47:27;;;;;;;;;;;;;;;19.45;34.43;100154.16;4918366;28;98341;-69
2023/07/20 00:49:54;;;;;;;;;;;;;;;19.45;34.43;100154.16;4901926;28;98251;-69
2023/07/20 00:52:21;;;;;;;;;;;;;;;19.44;34.50;100150.63;4905382;28;102673;-69
2023/07/20 00:54:48;;;;;;;;;;;;;;;19.42;34.39;100155.63;4882554;28;98108;-69
2023/07/20 00:57:15;;;;;;;;;;;;;;;19.42;34.60;100152.13;4920090;28;98049;-69
2023/07/20 00:59:42;;;;;;;;;;;;;;;19.39;34.45;100148.09;4917664;28;98264;-69
2023/07/20 01:02:08;;;;;;;;;;;;;;;19.34;34.53;100156.50;4894003;28;97925;-70
2023/07/20 01:04:35;;;;;;;;;;;;;;;19.27;34.62;100150.78;4900135;28;98353;-69
2023/07/20 01:07:13;;;;;;;;;;;;;;;19.23;34.53;100152.56;4930658;28;98200;-70
2023/07/20 01:09:52;;;;;;;;;;;;;;;19.18;34.64;100148.09;4908259;28;97978;-70
2023/07/20 01:12:27;;;;;;;;;;;;;;;19.16;34.51;100155.03;4890176;28;99132;-69
2023/07/20 01:14:54;;;;;;;;;;;;;;;19.14;34.64;100152.63;4921307;28;98301;-70
2023/07/20 01:17:21;;;;;;;;;;;;;;;19.13;34.61;100162.75;4891213;28;98247;-69
2023/07/20 01:19:48;;;;;;;;;;;;;;;19.12;34.58;100161.16;4901258;28;99738;-70
2023/07/20 01:22:20;;;;;;;;;;;;;;;19.12;34.80;100165.81;4887930;28;99459;-69
2023/07/20 01:25:05;;;;;;;;;;;;;;;19.09;34.72;100170.00;4901820;28;98099;-69
2023/07/20 01:27:52;;;;;;;;;;;;;;;19.08;34.82;100167.59;4939500;28;98105;-69
2023/07/20 01:30:48;;;;;;;;;;;;;;;19.07;34.64;100175.00;4936152;28;99325;-69
2023/07/20 01:33:16;;;;;;;;;;;;;;;19.05;34.47;100181.91;4906303;28;102328;-69
2023/07/20 01:35:43;;;;;;;;;;;;;;;19.04;34.53;100175.66;4904134;28;97965;-70
2023/07/20 01:38:11;;;;;;;;;;;;;;;19.03;34.75;100184.19;4922293;28;98197;-70
2023/07/20 01:40:38;;;;;;;;;;;;;;;19.01;34.67;100181.78;4890337;28;98219;-69
2023/07/20 01:43:04;;;;;;;;;;;;;;;18.98;34.73;100179.72;4905376;28;98767;-70
2023/07/20 01:45:31;;;;;;;;;;;;;;;18.96;34.81;100187.44;4922537;28;98387;-70
2023/07/20 01:47:58;;;;;;;;;;;;;;;18.96;34.87;100186.66;4922843;28;98143;-69
2023/07/20 01:50:25;;;;;;;;;;;;;;;18.92;34.82;100178.31;4905411;28;98491;-69
2023/07/20 01:52:51;;;;;;;;;;;;;;;18.87;34.68;100178.50;4888615;28;98421;-70
2023/07/20 01:55:18;;;;;;;;;;;;;;;18.82;34.85;100178.66;4905577;28;98895;-69
2023/07/20 01:57:44;;;;;;;;;;;;;;;18.79;34.88;100173.91;4907188;28;98372;-69
2023/07/20 02:00:12;;;;;;;;;;;;;;;18.75;34.88;100176.47;4905060;28;98056;-70
2023/07/20 02:02:39;;;;;;;;;;;;;;;18.72;34.89;100168.94;4894674;28;98074;-69
2023/07/20 02:05:05;;;;;;;;;;;;;;;18.71;34.92;100177.47;4923247;28;99024;-69
2023/07/20 02:07:32;;;;;;;;;;;;;;;18.68;35.08;100187.06;4922609;28;98836;-69
2023/07/20 02:09:59;;;;;;;;;;;;;;;18.66;34.87;100175.66;4905899;28;98277;-70
2023/07/20 02:12:25;;;;;;;;;;;;;;;18.64;35.03;100186.13;4905143;28;98067;-69
2023/07/20 02:14:52;;;;;;;;;;;;;;;18.63;34.94;100190.00;4911767;28;98162;-69
2023/07/20 02:17:19;;;;;;;;;;;;;;;18.62;35.04;100185.66;4909384;28;98220;-69
2023/07/20 02:19:49;;;;;;;;;;;;;;;18.60;35.08;100188.72;4895991;28;98158;-69
2023/07/20 02:22:16;;;;;;;;;;;;;;;18.59;35.04;100187.13;4903442;28;98137;-69
2023/07/20 02:24:43;;;;;;;;;;;;;;;18.54;34.95;100191.94;4892584;28;98152;-70
2023/07/20 02:27:09;;;;;;;;;;;;;;;18.52;35.06;100205.94;4920966;28;99720;-69
2023/07/20 02:29:36;;;;;;;;;;;;;;;18.49;35.02;100194.84;4924266;28;98778;-69
2023/07/20 02:32:03;;;;;;;;;;;;;;;18.46;35.18;100196.31;4901810;28;97994;-69
2023/07/20 02:34:29;;;;;;;;;;;;;;;18.46;35.00;100187.31;4920279;28;98272;-69
2023/07/20 02:36:58;;;;;;;;;;;;;;;18.43;35.09;100190.69;4901216;28;98297;-69
2023/07/20 02:39:25;;;;;;;;;;;;;;;18.40;35.04;100192.16;4908442;28;98319;-69
2023/07/20 02:41:51;;;;;;;;;;;;;;;18.37;35.07;100193.59;4890967;28;98264;-69
2023/07/20 02:44:17;;;;;;;;;;;;;;;18.37;35.08;100195.53;4908736;28;100070;-69
2023/07/20 02:50:07;;;;;;;;;;;;;;;18.32;35.31;100203.91;4937362;28;98647;-69
2023/07/20 02:52:34;;;;;;;;;;;;;;;18.28;35.15;100208.41;4900097;28;98835;-69
2023/07/20 02:55:00;;;;;;;;;;;;;;;18.26;35.33;100208.72;4887214;28;98171;-69
2023/07/20 02:57:27;;;;;;;;;;;;;;;18.24;35.12;100211.00;4905961;28;98030;-69
2023/07/20 02:59:54;;;;;;;;;;;;;;;18.24;35.17;100212.91;4883940;28;98175;-69
2023/07/20 03:02:21;;;;;;;;;;;;;;;18.22;35.28;100207.78;4900068;28;99994;-69
2023/07/20 03:04:47;;;;;;;;;;;;;;;18.22;35.28;100209.69;4921366;28;97867;-69
2023/07/20 03:07:14;;;;;;;;;;;;;;;18.21;35.39;100211.63;4884594;28;99251;-69
2023/07/20 03:09:40;;;;;;;;;;;;;;;18.22;35.25;100215.94;4906933;28;97980;-69
2023/07/20 03:12:09;;;;;;;;;;;;;;;18.21;35.33;100216.28;4921342;28;116908;-69
2023/07/20 03:14:35;;;;;;;;;;;;;;;18.19;35.17;100229.44;4923211;28;99389;-69
2023/07/20 03:17:02;;;;;;;;;;;;;;;18.17;35.25;100226.25;4902792;28;98341;-69
2023/07/20 03:19:28;;;;;;;;;;;;;;;18.13;35.38;100232.34;4908047;28;98410;-69
2023/07/20 03:21:55;;;;;;;;;;;;;;;18.12;35.57;100233.47;4899368;28;98138;-69
2023/07/20 03:24:21;;;;;;;;;;;;;;;18.11;35.37;100234.56;4905123;28;98310;-69
2023/07/20 03:26:48;;;;;;;;;;;;;;;18.13;35.11;100237.00;4910464;28;98413;-69
2023/07/20 03:29:16;;;;;;;;;;;;;;;18.15;35.42;100232.00;4905062;28;99593;-69
2023/07/20 03:31:42;;;;;;;;;;;;;;;18.15;35.37;100235.53;4909382;28;98193;-69
2023/07/20 03:34:10;;;;;;;;;;;;;;;18.15;35.26;100237.47;4922698;28;98118;-69
2023/07/20 03:36:36;;;;;;;;;;;;;;;18.13;35.51;100240.53;4909096;28;100173;-69
2023/07/20 03:39:03;;;;;;;;;;;;;;;18.14;35.35;100244.03;4922076;28;98625;-69
2023/07/20 03:41:30;;;;;;;;;;;;;;;18.15;35.21;100240.19;4904077;28;98378;-69
2023/07/20 03:43:56;;;;;;;;;;;;;;;18.17;35.37;100243.41;4911079;28;98193;-69
2023/07/20 03:46:22;;;;;;;;;;;;;;;18.20;35.23;100240.03;4923287;28;99199;-69
2023/07/20 03:48:49;;;;;;;;;;;;;;;18.23;35.38;100238.56;4905519;28;98533;-69
2023/07/20 03:51:15;;;;;;;;;;;;;;;18.25;35.37;100234.41;4903438;28;98649;-69
2023/07/20 03:53:42;;;;;;;;;;;;;;;18.27;35.36;100236.78;4904939;28;97884;-69
2023/07/20 03:56:09;;;;;;;;;;;;;;;18.28;35.44;100235.69;4922490;28;98085;-69
2023/07/20 03:58:35;;;;;;;;;;;;;;;18.29;35.28;100240.81;4888292;28;98184;-70
2023/07/20 04:01:02;;;;;;;;;;;;;;;18.31;35.42;100245.94;4904911;28;99726;-69
2023/07/20 04:03:29;;;;;;;;;;;;;;;18.33;35.22;100244.50;4921903;28;98227;-69
2023/07/20 04:05:56;;;;;;;;;;;;;;;18.34;35.28;100243.34;4907730;28;98615;-69
2023/07/20 04:08:24;;;;;;;;;;;;;;;18.36;35.52;100243.84;4922859;28;98283;-69
2023/07/20 04:10:50;;;;;;;;;;;;;;;18.39;35.37;100248.66;4918523;28;98118;-69
2023/07/20 04:13:17;;;;;;;;;;;;;;;18.43;35.49;100237.06;4890543;28;98665;-69
2023/07/20 04:15:43;;;;;;;;;;;;;;;18.44;35.39;100242.22;4900163;28;97948;-69
2023/07/20 04:18:10;;;;;;;;;;;;;;;18.50;35.39;100242.84;4886262;28;98102;-69
2023/07/20 04:20:37;;;;;;;;;;;;;;;18.57;35.34;100243.94;4886568;28;97938;-69
2023/07/20 04:23:04;;;;;;;;;;;;;;;18.68;35.18;100240.88;4904550;28;98863;-69
2023/07/20 04:25:38;;;;;;;;;;;;;;;18.75;35.03;100242.00;4919894;28;98437;-69
2023/07/20 04:28:08;;;;;;;;;;;;;;;18.82;35.24;100246.94;4893882;28;98485;-69
2023/07/20 04:30:37;;;;;;;;;;;;;;;18.86;35.15;100240.50;4905287;28;98239;-69
2023/07/20 04:33:04;;;;;;;;;;;;;;;18.93;35.14;100239.97;4897833;28;98574;-69
2023/07/20 04:35:49;;;;;;;;;;;;;;;19.01;35.09;100241.06;4918816;28;98220;-68
2023/07/20 04:38:17;;;;;;;;;;;;;;;19.06;35.18;100243.59;4931105;28;98472;-69
2023/07/20 04:40:46;;;;;;;;;;;;;;;19.08;35.23;100244.88;4920786;28;98730;-69
2023/07/20 04:43:15;;;;;;;;;;;;;;;19.12;34.98;100245.03;4904502;28;98272;-69
2023/07/20 04:45:42;;;;;;;;;;;;;;;19.16;35.02;100251.44;4897856;28;98363;-69
2023/07/20 04:48:11;;;;;;;;;;;;;;;19.17;35.12;100252.22;4904202;28;98033;-70
2023/07/20 04:50:38;;;;;;;;;;;;;;;19.13;35.26;100257.56;4918580;28;98608;-69
2023/07/20 04:53:05;;;;;;;;;;;;;;;19.17;35.08;100254.97;4903968;28;98775;-70
2023/07/20 04:55:33;;;;;;;;;;;;;;;19.27;35.27;100249.94;4901598;28;98492;-69
2023/07/20 04:58:03;;;;;;;;;;;;;;;19.35;35.15;100243.59;4889145;28;98172;-70
2023/07/20 05:00:33;;;;;;;;;;;;;;;19.46;35.10;100248.69;4918468;28;99849;-69
2023/07/20 05:03:05;;;;;;;;;;;;;;;19.61;35.10;100248.09;4901569;28;98468;-70
2023/07/20 05:05:32;;;;;;;;;;;;;;;19.65;35.00;100235.41;4903992;28;98293;-69
2023/07/20 05:07:58;;;;;;;;;;;;;;;19.63;34.97;100240.38;4917937;28;98161;-70
2023/07/20 05:10:25;;;;;;;;;;;;;;;19.61;35.10;100256.31;4902824;28;98184;-70
2023/07/20 05:12:52;;;;;;;;;;;;;;;19.65;35.21;100249.06;4901303;28;98159;-69
2023/07/20 05:15:19;;;;;;;;;;;;;;;19.82;34.71;100246.19;4918785;28;98202;-70
2023/07/20 05:17:45;;;;;;;;;;;;;;;20.21;34.61;100244.06;4907402;28;98444;-70
2023/07/20 05:20:12;;;;;;;;;;;;;;;20.36;34.36;100248.13;4921882;28;98410;-70
2023/07/20 05:22:40;;;;;;;;;;;;;;;20.38;34.71;100240.34;4922760;28;98505;-70
2023/07/20 05:25:10;;;;;;;;;;;;;;;20.27;34.76;100239.16;4903857;28;98822;-70
2023/07/20 05:27:40;;;;;;;;;;;;;;;20.17;35.01;100240.41;4907593;28;97989;-70
2023/07/20 05:30:07;;;;;;;;;;;;;;;20.09;35.02;100241.28;4885375;28;99891;-70
2023/07/20 05:32:34;;;;;;;;;;;;;;;20.12;34.96;100235.13;4908536;28;98323;-69
2023/07/20 05:35:01;;;;;;;;;;;;;;;20.14;34.92;100243.81;4924757;28;98597;-70
2023/07/20 05:37:27;;;;;;;;;;;;;;;20.37;34.84;100244.22;4883608;28;98454;-70
2023/07/20 05:39:54;;;;;;;;;;;;;;;20.63;34.69;100243.94;4891709;28;98316;-69
2023/07/20 05:42:21;;;;;;;;;;;;;;;20.75;34.59;100251.38;4899394;28;97957;-70
2023/07/20 05:44:49;;;;;;;;;;;;;;;20.77;34.63;100255.38;4923514;28;98229;-70
2023/07/20 05:47:16;;;;;;;;;;;;;;;20.93;34.56;100241.81;4909937;28;99374;-70
2023/07/20 05:49:43;;;;;;;;;;;;;;;21.08;34.53;100251.31;4924565;28;99724;-70
2023/07/20 05:52:09;;;;;;;;;;;;;;;21.16;34.32;100258.59;4887256;28;98382;-70
2023/07/20 05:54:36;;;;;;;;;;;;;;;21.07;34.70;100256.00;4921361;28;100051;-70
2023/07/20 05:57:02;;;;;;;;;;;;;;;21.05;34.73;100263.72;4906735;28;98224;-69
2023/07/20 05:59:31;;;;;;;;;;;;;;;20.99;34.75;100262.38;4921692;28;97988;-70
2023/07/20 06:01:58;;;;;;;;;;;;;;;20.92;34.98;100270.38;4906822;28;98275;-70
2023/07/20 06:04:24;;;;;;;;;;;;;;;20.82;34.97;100268.84;4921847;28;100204;-70
2023/07/20 06:06:51;;;;;;;;;;;;;;;20.75;35.11;100276.03;4904713;28;98688;-69
2023/07/20 06:09:18;;;;;;;;;;;;;;;20.59;35.13;100268.50;4918434;28;98425;-69
2023/07/20 06:11:45;;;;;;;;;;;;;;;20.46;35.32;100266.81;4906919;28;98139;-69
2023/07/20 06:14:12;;;;;;;;;;;;;;;20.43;35.38;100270.22;4920754;28;98988;-69
2023/07/20 06:16:38;;;;;;;;;;;;;;;20.47;35.06;100260.19;4900970;28;98156;-69
2023/07/20 06:19:06;;;;;;;;;;;;;;;20.57;35.07;100254.34;4902315;28;98623;-69
2023/07/20 06:21:32;;;;;;;;;;;;;;;20.76;34.93;100262.03;4916572;28;98078;-68
2023/07/20 06:23:59;;;;;;;;;;;;;;;21.01;34.72;100259.28;4904056;28;98285;-68
2023/07/20 06:26:26;;;;;;;;;;;;;;;21.25;34.64;100259.28;4921227;28;99110;-69
2023/07/20 06:28:53;;;;;;;;;;;;;;;21.64;34.42;100262.44;4899168;28;98752;-68
2023/07/20 06:31:19;;;;;;;;;;;;;;;22.38;33.75;100262.19;4931958;28;98129;-69
2023/07/20 06:33:46;;;;;;;;;;;;;;;22.85;33.82;100261.44;4888762;28;98104;-69
2023/07/20 06:36:12;;;;;;;;;;;;;;;23.95;32.96;100269.47;4921596;28;97909;-68
2023/07/20 06:38:39;;;;;;;;;;;;;;;24.12;33.06;100276.50;4916011;28;98168;-69
2023/07/20 06:41:06;;;;;;;;;;;;;;;24.61;33.09;100278.63;4916552;28;98508;-69
2023/07/20 06:43:32;;;;;;;;;;;;;;;24.93;33.01;100276.41;4934124;28;99324;-69
2023/07/20 06:45:59;;;;;;;;;;;;;;;24.60;33.64;100282.56;4881476;28;99259;-69
2023/07/20 06:48:25;;;;;;;;;;;;;;;24.54;33.69;100284.00;4887453;28;100256;-69
2023/07/20 06:50:53;;;;;;;;;;;;;;;24.62;33.40;100290.44;4901623;28;98266;-69
2023/07/20 06:53:20;;;;;;;;;;;;;;;25.09;33.21;100279.06;4904474;28;99832;-69
2023/07/20 06:55:46;;;;;;;;;;;;;;;25.84;32.55;100282.13;4885615;28;98138;-69
2023/07/20 06:58:13;;;;;;;;;;;;;;;25.76;32.95;100283.19;4885843;28;97972;-69
2023/07/20 07:00:39;;;;;;;;;;;;;;;26.51;32.22;100284.88;4923225;28;98240;-69
2023/07/20 07:03:05;;;;;;;;;;;;;;;27.07;31.99;100288.53;4917910;28;98132;-69
2023/07/20 07:05:32;;;;;;;;;;;;;;;26.68;32.60;100280.69;4887178;28;98244;-70
2023/07/20 07:07:58;;;;;;;;;;;;;;;26.61;32.83;100284.22;4884303;28;97993;-69
2023/07/20 07:10:25;;;;;;;;;;;;;;;25.79;33.73;100290.75;4900614;28;98167;-69
2023/07/20 07:12:52;;;;;;;;;;;;;;;25.20;34.06;100301.31;4919448;28;98255;-68
2023/07/20 07:15:18;;;;;;;;;;;;;;;24.91;33.96;100294.47;4895049;28;98064;-69
2023/07/20 07:17:45;;;;;;;;;;;;;;;24.89;34.00;100294.06;4906517;28;98367;-69
2023/07/20 07:20:12;;;;;;;;;;;;;;;24.49;34.38;100296.13;4884897;28;98122;-69
2023/07/20 07:22:39;;;;;;;;;;;;;;;24.70;34.14;100295.72;4919524;28;98092;-69
2023/07/20 07:25:07;;;;;;;;;;;;;;;26.22;32.73;100294.81;4888007;28;98297;-69
2023/07/20 07:27:35;;;;;;;;;;;;;;;25.64;33.66;100287.75;4902661;28;98087;-68
2023/07/20 07:30:02;;;;;;;;;;;;;;;26.46;32.77;100285.25;4916963;28;99811;-69
2023/07/20 07:32:28;;;;;;;;;;;;;;;28.16;31.48;100284.06;4920353;28;98993;-69
2023/07/20 07:34:55;;;;;;;;;;;;;;;27.89;31.86;100289.09;4918844;28;98305;-69
2023/07/20 07:37:21;;;;;;;;;;;;;;;27.25;32.84;100295.03;4882728;28;98091;-69
2023/07/20 07:39:47;;;;;;;;;;;;;;;26.71;33.21;100298.50;4904404;28;98222;-69
2023/07/20 07:42:14;;;;;;;;;;;;;;;26.55;33.18;100291.25;4919125;28;98637;-69
2023/07/20 07:44:41;;;;;;;;;;;;;;;27.02;32.84;100298.00;4889681;28;98610;-69
2023/07/20 07:47:08;;;;;;;;;;;;;;;26.91;33.04;100300.66;4898751;28;98292;-69
2023/07/20 07:49:35;;;;;;;;;;;;;;;27.39;32.41;100302.63;4884514;28;98146;-69
2023/07/20 07:52:02;;;;;;;;;;;;;;;27.45;32.51;100298.31;4901421;28;98224;-70
2023/07/20 07:54:29;;;;;;;;;;;;;;;26.60;33.53;100298.38;4899434;28;98240;-70
2023/07/20 07:56:55;;;;;;;;;;;;;;;26.37;33.61;100302.09;4880921;28;98805;-70
2023/07/20 07:59:22;;;;;;;;;;;;;;;26.88;33.11;100312.50;4879677;28;98214;-70
2023/07/20 08:01:48;;;;;;;;;;;;;;;27.25;32.70;100306.09;4884754;28;98031;-69
2023/07/20 08:04:15;;;;;;;;;;;;;;;27.66;32.52;100308.72;4917682;28;98012;-69
2023/07/20 08:06:41;;;;;;;;;;;;;;;30.63;30.07;100298.38;4900379;28;100775;-69
2023/07/20 08:09:08;;;;;;;;;;;;;;;32.62;28.98;100311.41;4917774;28;98239;-69
2023/07/20 08:11:35;;;;;;;;;;;;;;;33.17;29.46;100317.69;4903175;28;98095;-69
2023/07/20 08:14:02;;;;;;;;;;;;;;;31.81;30.67;100319.59;4921405;28;98083;-69
2023/07/20 08:16:28;;;;;;;;;;;;;;;32.79;30.30;100323.50;4922778;28;98128;-70
2023/07/20 08:18:55;;;;;;;;;;;;;;;31.86;31.05;100321.94;4907862;28;98122;-69
2023/07/20 08:21:21;;;;;;;;;;;;;;;31.04;31.95;100320.72;4907801;28;100981;-69
2023/07/20 08:23:48;;;;;;;;;;;;;;;29.98;32.72;100322.91;4908211;28;98090;-69
2023/07/20 08:26:14;;;;;;;;;;;;;;;29.67;32.39;100318.25;4907633;28;97990;-70
2023/07/20 08:28:42;;;;;;;;;;;;;;;28.90;33.38;100320.66;4907704;28;98052;-69
2023/07/20 08:31:08;;;;;;;;;;;;;;;31.34;30.83;100313.72;4907235;28;99563;-69
2023/07/20 08:33:35;;;;;;;;;;;;;;;33.28;29.40;100320.31;4893172;28;98110;-69
2023/07/20 08:36:03;;;;;;;;;;;;;;;34.27;29.39;100322.38;4907431;28;98266;-69
2023/07/20 08:38:29;;;;;;;;;;;;;;;35.47;28.53;100317.09;4905838;28;98477;-69
2023/07/20 08:40:55;;;;;;;;;;;;;;;36.00;28.61;100326.06;4890345;28;98162;-69
2023/07/20 08:43:23;;;;;;;;;;;;;;;37.61;27.65;100338.53;4911235;28;98125;-69
2023/07/20 08:45:49;;;;;;;;;;;;;;;37.49;27.79;100330.94;4907059;28;98246;-70
2023/07/20 08:48:16;;;;;;;;;;;;;;;38.58;27.94;100330.09;4891076;28;98760;-70
2023/07/20 08:50:42;;;;;;;;;;;;;;;39.68;27.09;100323.88;4909658;28;99448;-70
2023/07/20 08:53:09;;;;;;;;;;;;;;;36.15;30.19;100318.81;4924288;28;98057;-69
2023/07/20 08:55:35;;;;;;;;;;;;;;;37.57;29.05;100321.00;4908220;28;98301;-71
2023/07/20 08:58:02;;;;;;;;;;;;;;;37.09;29.40;100323.84;4909639;28;101090;-69
2023/07/20 09:00:29;;;;;;;;;;;;;;;34.58;31.34;100322.91;4886885;28;98685;-69
2023/07/20 09:02:56;;;;;;;;;;;;;;;37.86;28.36;100320.00;4907580;28;98042;-69
2023/07/20 09:05:23;;;;;;;;;;;;;;;37.38;28.90;100311.66;4920664;28;98253;-71
2023/07/20 09:07:50;;;;;;;;;;;;;;;39.83;27.40;100315.56;4921755;28;98308;-71
2023/07/20 09:10:16;;;;;;;;;;;;;;;41.15;26.76;100323.31;4907693;28;98296;-69
2023/07/20 09:12:43;;;;;;;;;;;;;;;41.16;27.04;100319.25;4903711;28;97962;-72
2023/07/20 09:15:10;;;;;;;;;;;;;;;37.72;29.84;100315.66;4923601;28;98169;-70
2023/07/20 09:17:40;;;;;;;;;;;;;;;39.11;28.32;100304.59;4894725;28;101428;-70
2023/07/20 09:20:13;;;;;;;;;;;;;;;40.65;27.21;100306.84;4922707;28;97965;-70
2023/07/20 09:22:40;;;;;;;;;;;;;;;39.01;28.71;100303.00;4905897;28;98660;-70
2023/07/20 09:25:07;;;;;;;;;;;;;;;36.99;30.15;100294.13;4890182;28;98435;-69
2023/07/20 09:27:41;;;;;;;;;;;;;;;35.43;31.71;100294.78;4901931;28;98607;-72
2023/07/20 09:30:08;;;;;;;;;;;;;;;34.13;31.99;100301.91;4884611;28;100866;-72
2023/07/20 09:32:55;;;;;;;;;;;;;;;32.99;32.97;100295.69;4920968;28;98527;-72
2023/07/20 09:35:21;;;;;;;;;;;;;;;33.01;32.21;100298.03;4901265;28;99083;-71
2023/07/20 09:37:54;;;;;;;;;;;;;;;35.12;30.20;100297.22;4886167;28;98432;-69
2023/07/20 09:40:20;;;;;;;;;;;;;;;36.90;28.86;100296.03;4916866;28;98067;-71
2023/07/20 09:42:47;;;;;;;;;;;;;;;38.53;27.70;100308.19;4902756;28;98403;-69
2023/07/20 09:45:14;;;;;;;;;;;;;;;40.09;27.12;100301.84;4887588;28;99091;-69
2023/07/20 09:47:41;;;;;;;;;;;;;;;41.53;26.20;100311.25;4902451;28;98114;-70
2023/07/20 09:50:11;;;;;;;;;;;;;;;42.52;26.18;100320.41;4888746;28;98110;-70
2023/07/20 09:52:40;;;;;;;;;;;;;;;42.94;26.13;100307.88;4904311;28;98286;-69
2023/07/20 09:55:11;;;;;;;;;;;;;;;44.06;25.49;100298.56;4904214;28;98298;-74
2023/07/20 09:57:38;;;;;;;;;;;;;;;42.60;26.97;100305.38;4905168;28;100645;-75
2023/07/20 10:00:12;;;;;;;;;;;;;;;41.74;27.39;100302.88;4921544;28;98103;-75
2023/07/20 10:02:43;;;;;;;;;;;;;;;41.64;27.59;100300.16;4909671;28;99046;-69
2023/07/20 10:05:10;;;;;;;;;;;;;;;41.29;27.78;100305.63;4900140;28;98824;-70
2023/07/20 10:07:39;;;;;;;;;;;;;;;41.40;27.77;100305.09;4918498;28;98203;-69
2023/07/20 10:10:07;;;;;;;;;;;;;;;41.20;27.75;100300.06;4917446;28;98577;-70
2023/07/20 10:12:33;;;;;;;;;;;;;;;42.35;27.14;100298.28;4917659;28;99705;-70
2023/07/20 10:15:11;;;;;;;;;;;;;;;43.22;26.55;100296.91;4933191;28;98271;-75
2023/07/20 10:17:39;;;;;;;;;;;;;;;42.03;27.44;100285.94;4917942;28;98172;-70
2023/07/20 10:20:07;;;;;;;;;;;;;;;43.01;27.14;100287.63;4881199;28;99455;-75
2023/07/20 10:22:36;;;;;;;;;;;;;;;44.36;26.33;100292.59;4920941;28;99372;-73
2023/07/20 10:25:04;;;;;;;;;;;;;;;40.81;28.87;100290.75;4915294;28;97935;-73
2023/07/20 10:27:33;;;;;;;;;;;;;;;38.49;30.31;100283.00;4905182;28;99254;-74
2023/07/20 10:30:01;;;;;;;;;;;;;;;38.69;29.67;100279.00;4899849;28;98259;-74
2023/07/20 10:32:28;;;;;;;;;;;;;;;40.73;28.03;100279.03;4920528;28;98487;-67
2023/07/20 10:34:56;;;;;;;;;;;;;;;41.88;27.03;100280.28;4902924;28;98067;-72
2023/07/20 10:37:50;;;;;;;;;;;;;;;43.04;26.91;100284.59;4885113;28;98068;-72
2023/07/20 10:40:34;;;;;;;;;;;;;;;43.04;26.68;100278.91;4916975;28;98160;-68
2023/07/20 10:43:02;;;;;;;;;;;;;;;41.42;28.24;100271.47;4920554;28;99159;-73
2023/07/20 10:45:52;;;;;;;;;;;;;;;42.98;26.72;100278.06;4917337;28;99736;-67
2023/07/20 10:48:20;;;;;;;;;;;;;;;43.83;26.28;100272.03;4909271;28;98095;-74
2023/07/20 10:51:06;;;;;;;;;;;;;;;41.16;28.66;100262.72;4882485;28;98280;-74
2023/07/20 10:53:33;;;;;;;;;;;;;;;43.29;26.57;100273.81;4916480;28;98544;-67
2023/07/20 10:56:11;;;;;;;;;;;;;;;43.88;26.57;100267.72;4899728;28;98196;-74
2023/07/20 10:58:37;;;;;;;;;;;;;;;43.93;26.46;100269.81;4932008;28;98093;-70
2023/07/20 11:01:05;;;;;;;;;;;;;;;44.62;26.14;100269.00;4900487;28;99686;-70
2023/07/20 11:03:33;;;;;;;;;;;;;;;44.48;26.39;100256.53;4917496;28;98315;-70
2023/07/20 11:06:00;;;;;;;;;;;;;;;42.18;27.97;100263.28;4888252;28;98191;-70
2023/07/20 11:08:42;;;;;;;;;;;;;;;43.40;27.27;100262.59;4901042;28;98122;-77
2023/07/20 11:11:25;;;;;;;;;;;;;;;40.36;29.37;100259.44;4917839;28;98175;-70
2023/07/20 11:14:01;;;;;;;;;;;;;;;38.66;30.44;100255.34;4900007;28;98165;-77
2023/07/20 11:16:36;;;;;;;;;;;;;;;37.13;31.51;100245.09;4920588;28;98074;-78
2023/07/20 11:19:04;;;;;;;;;;;;;;;36.08;31.66;100246.91;4917515;28;97954;-77
2023/07/20 11:21:35;;;;;;;;;;;;;;;35.32;31.76;100247.47;4885850;28;98116;-77
2023/07/20 11:24:04;;;;;;;;;;;;;;;35.49;31.22;100239.84;4902431;28;98312;-76
2023/07/20 11:26:30;;;;;;;;;;;;;;;38.26;28.74;100255.38;4934620;28;98200;-69
2023/07/20 11:28:58;;;;;;;;;;;;;;;38.99;28.23;100254.81;4919829;28;99671;-70
2023/07/20 11:31:24;;;;;;;;;;;;;;;39.57;28.12;100253.06;4919026;28;100007;-67
2023/07/20 11:33:51;;;;;;;;;;;;;;;40.04;27.85;100246.06;4904374;28;99493;-67
2023/07/20 11:36:18;;;;;;;;;;;;;;;40.02;28.16;100254.25;4898150;28;98231;-67
2023/07/20 11:38:44;;;;;;;;;;;;;;;39.02;29.05;100239.78;4902594;28;98666;-67
2023/07/20 11:41:10;;;;;;;;;;;;;;;39.34;28.76;100241.22;4901067;28;98269;-75
2023/07/20 11:43:37;;;;;;;;;;;;;;;38.74;29.05;100248.16;4919564;28;99307;-75
2023/07/20 11:46:05;;;;;;;;;;;;;;;39.04;28.97;100237.28;4886803;28;99755;-75
2023/07/20 11:48:31;;;;;;;;;;;;;;;39.41;28.71;100240.88;4903285;28;98253;-67
2023/07/20 11:50:59;;;;;;;;;;;;;;;39.47;28.68;100241.06;4902922;28;98137;-67
2023/07/20 11:53:25;;;;;;;;;;;;;;;38.04;29.98;100236.56;4903539;28;97995;-67
2023/07/20 11:55:52;;;;;;;;;;;;;;;38.62;29.41;100242.69;4917706;28;98225;-75
2023/07/20 11:58:19;;;;;;;;;;;;;;;38.87;29.19;100241.66;4886775;28;98160;-67
2023/07/20 12:00:45;;;;;;;;;;;;;;;37.59;29.83;100243.44;4890503;28;98333;-75
2023/07/20 12:03:12;;;;;;;;;;;;;;;37.62;29.55;100252.22;4919478;28;98622;-67
2023/07/20 12:05:40;;;;;;;;;;;;;;;37.87;29.23;100252.06;4920011;28;98337;-67
2023/07/20 12:08:07;;;;;;;;;;;;;;;36.75;30.25;100254.41;4884969;28;98149;-75
2023/07/20 12:10:34;;;;;;;;;;;;;;;35.86;30.85;100255.16;4915472;28;100778;-75
2023/07/20 12:13:04;;;;;;;;;;;;;;;35.02;31.08;100256.28;4903710;28;98486;-68
2023/07/20 12:15:31;;;;;;;;;;;;;;;34.15;31.77;100262.31;4935081;28;98431;-78
2023/07/20 12:18:00;;;;;;;;;;;;;;;33.44;32.13;100259.75;4918358;28;98259;-77
2023/07/20 12:20:32;;;;;;;;;;;;;;;32.78;32.28;100273.69;4918925;28;97951;-69
2023/07/20 12:23:04;;;;;;;;;;;;;;;32.18;32.48;100263.00;4933321;28;99357;-69
2023/07/20 12:25:41;;;;;;;;;;;;;;;31.74;32.60;100261.97;4914294;28;98355;-77
2023/07/20 12:28:18;;;;;;;;;;;;;;;31.47;32.28;100270.22;4915860;28;98226;-77
2023/07/20 12:30:46;;;;;;;;;;;;;;;31.34;32.48;100268.41;4932808;28;100543;-76
2023/07/20 12:33:15;;;;;;;;;;;;;;;31.24;32.42;100276.44;4916002;28;98174;-76
2023/07/20 12:35:43;;;;;;;;;;;;;;;31.31;32.28;100274.78;4903403;28;98508;-68
2023/07/20 12:38:09;;;;;;;;;;;;;;;31.48;31.84;100276.56;4901558;28;98420;-76
2023/07/20 12:40:36;;;;;;;;;;;;;;;31.63;31.93;100278.00;4887993;28;98331;-77
2023/07/20 12:43:02;;;;;;;;;;;;;;;31.62;31.70;100286.78;4915143;28;98025;-69